Time;durP1;ratioP1;P1;durP2;ratioP2;P2;SDS_P1;SDS_P2;PMS_P1;PMS_P2;Temp;Humidity;BMP_temperature;BMP_pressure;BME280_temperature;BME280_humidity;BME280_pressure;Samples;Min_cycle;Max_cycle;Signal;HPM_P1;HPM_P2
2021/12/12 00:00:40;;;;;;;7.72;5.07;;;;;;;8.05;100.00;93525.19;5084419;28;19931;-70
2021/12/12 00:03:21;;;;;;;4.57;2.67;;;;;;;8.00;100.00;93506.97;5086542;28;20054;-69
2021/12/12 00:05:52;;;;;;;3.17;2.13;;;;;;;8.02;100.00;93526.44;5088576;28;20696;-69
2021/12/12 00:08:21;;;;;;;3.13;1.65;;;;;;;7.78;100.00;93535.56;5082384;28;20043;-70
2021/12/12 00:10:53;;;;;;;2.08;1.40;;;;;;;7.71;100.00;93530.56;5083863;28;20078;-69
2021/12/12 00:13:25;;;;;;;2.78;1.58;;;;;;;7.61;100.00;93525.28;5085567;28;20040;-70
2021/12/12 00:15:52;;;;;;;4.50;2.45;;;;;;;7.69;100.00;93527.44;5081533;28;20044;-69
2021/12/12 00:18:19;;;;;;;2.97;1.58;;;;;;;7.64;100.00;93542.94;5065823;28;20534;-69
2021/12/12 00:20:48;;;;;;;2.47;1.33;;;;;;;7.45;100.00;93551.03;5082927;28;20494;-69
2021/12/12 00:23:16;;;;;;;3.70;2.00;;;;;;;7.13;100.00;93550.13;5084076;28;20036;-69
2021/12/12 00:25:47;;;;;;;4.50;2.38;;;;;;;7.01;100.00;93543.25;5090415;28;20552;-69
2021/12/12 00:28:19;;;;;;;3.22;2.08;;;;;;;7.03;100.00;93561.13;5089429;28;20133;-69
2021/12/12 00:30:50;;;;;;;6.72;3.78;;;;;;;7.01;100.00;93563.97;5088237;28;20067;-69
2021/12/12 00:33:17;;;;;;;6.70;5.05;;;;;;;7.14;100.00;93585.34;5089159;28;20406;-69
2021/12/12 00:35:45;;;;;;;7.53;5.22;;;;;;;7.09;100.00;93604.19;5090212;28;20066;-69
2021/12/12 00:38:17;;;;;;;7.38;3.55;;;;;;;7.00;100.00;93598.63;5066005;28;20051;-69
2021/12/12 00:40:47;;;;;;;4.47;2.05;;;;;;;7.07;100.00;93625.13;5093124;28;20036;-69
2021/12/12 00:43:28;;;;;;;4.75;2.80;;;;;;;7.04;100.00;93630.81;5093375;28;20094;-69
2021/12/12 00:45:58;;;;;;;4.78;2.42;;;;;;;7.04;100.00;93620.44;5087580;28;20108;-69
2021/12/12 00:48:27;;;;;;;9.35;4.88;;;;;;;7.06;100.00;93602.88;5088693;28;20070;-69
2021/12/12 00:50:58;;;;;;;10.30;2.85;;;;;;;7.11;100.00;93620.25;5085641;28;20501;-69
2021/12/12 00:53:25;;;;;;;6.82;4.47;;;;;;;7.06;100.00;93623.56;5086724;28;20044;-69
2021/12/12 00:55:53;;;;;;;7.38;4.15;;;;;;;7.05;100.00;93640.13;5094346;28;20055;-69
2021/12/12 00:58:22;;;;;;;7.82;4.30;;;;;;;7.05;100.00;93652.28;5095170;28;20055;-69
2021/12/12 01:01:00;;;;;;;6.20;3.60;;;;;;;6.93;100.00;93654.97;5091337;28;20036;-69
2021/12/12 01:03:31;;;;;;;7.20;4.03;;;;;;;6.81;100.00;93662.03;5092599;28;20742;-69
2021/12/12 01:06:01;;;;;;;10.45;4.00;;;;;;;6.67;100.00;93675.28;5094721;28;20059;-69
2021/12/12 01:08:29;;;;;;;12.38;5.40;;;;;;;6.63;100.00;93681.94;5094462;28;20040;-69
2021/12/12 01:11:28;;;;;;;6.35;3.63;;;;;;;6.56;100.00;93691.66;5091189;28;20501;-68
2021/12/12 01:13:55;;;;;;;4.63;2.58;;;;;;;6.47;100.00;93693.06;5078753;28;20051;-69
2021/12/12 01:16:36;;;;;;;7.30;2.72;;;;;;;6.42;100.00;93705.91;5097418;28;20043;-69
2021/12/12 01:19:18;;;;;;;6.30;2.58;;;;;;;6.44;100.00;93698.69;5091808;28;20047;-69
2021/12/12 01:21:51;;;;;;;4.20;2.20;;;;;;;6.29;100.00;93684.47;5093570;28;20035;-69
2021/12/12 01:24:26;;;;;;;3.47;1.80;;;;;;;6.30;100.00;93693.00;5095571;28;20047;-69
2021/12/12 01:26:56;;;;;;;2.65;1.90;;;;;;;6.19;100.00;93676.53;5093397;28;20056;-69
2021/12/12 01:29:23;;;;;;;2.90;1.60;;;;;;;6.21;100.00;93669.34;5090250;28;20032;-69
2021/12/12 01:31:50;;;;;;;2.40;1.58;;;;;;;6.07;100.00;93658.50;5096744;28;20789;-68
2021/12/12 01:34:28;;;;;;;4.32;1.70;;;;;;;6.01;100.00;93661.22;5090625;28;20419;-68
2021/12/12 01:37:12;;;;;;;5.82;2.47;;;;;;;6.03;100.00;93669.50;5091266;28;20505;-69
2021/12/12 01:39:45;;;;;;;3.90;2.05;;;;;;;5.92;100.00;93666.72;5093203;28;20036;-69
2021/12/12 01:42:20;;;;;;;2.80;1.27;;;;;;;5.85;100.00;93666.09;5089065;28;20421;-69
2021/12/12 01:45:01;;;;;;;2.08;1.50;;;;;;;5.84;100.00;93664.50;5092174;28;20040;-69
2021/12/12 01:47:31;;;;;;;3.47;1.70;;;;;;;5.83;100.00;93668.09;5086466;28;20039;-69
2021/12/12 01:50:02;;;;;;;1.88;1.35;;;;;;;5.76;100.00;93667.44;5094560;28;20113;-69
2021/12/12 01:52:30;;;;;;;1.80;1.17;;;;;;;5.77;100.00;93694.84;5086373;28;20033;-69
2021/12/12 01:55:06;;;;;;;2.17;1.23;;;;;;;5.83;100.00;93704.25;5091615;28;20050;-69
2021/12/12 01:57:36;;;;;;;2.95;1.58;;;;;;;5.80;100.00;93699.56;5093803;28;20448;-69
2021/12/12 02:00:20;;;;;;;2.75;1.08;;;;;;;5.80;100.00;93701.34;5091728;28;20086;-69
2021/12/12 02:02:47;;;;;;;2.80;1.58;;;;;;;5.90;100.00;93707.50;5091855;28;20074;-69
2021/12/12 02:05:17;;;;;;;9.20;3.55;;;;;;;5.91;100.00;93716.84;5088008;28;20047;-68
2021/12/12 02:07:51;;;;;;;5.65;2.15;;;;;;;5.77;100.00;93710.34;5095040;28;20068;-69
2021/12/12 02:10:24;;;;;;;3.63;1.85;;;;;;;5.71;100.00;93685.44;5089954;28;20044;-68
2021/12/12 02:12:52;;;;;;;1.75;1.02;;;;;;;5.68;100.00;93699.59;5094578;28;20039;-69
2021/12/12 02:15:20;;;;;;;3.30;1.52;;;;;;;5.70;100.00;93699.34;5091742;28;20032;-68
2021/12/12 02:17:49;;;;;;;2.80;1.35;;;;;;;5.45;100.00;93682.31;5101364;28;20392;-69
2021/12/12 02:20:38;;;;;;;3.67;1.65;;;;;;;5.53;100.00;93710.41;5094557;28;20039;-69
2021/12/12 02:23:26;;;;;;;3.28;1.85;;;;;;;5.50;100.00;93705.66;5093648;28;20036;-68
2021/12/12 02:37:02;;;;;;;3.67;2.05;;;;;;;5.66;100.00;93724.09;5090269;28;20056;-69
2021/12/12 02:39:31;;;;;;;6.22;2.35;;;;;;;5.63;100.00;93719.34;5088051;28;20046;-69
2021/12/12 02:42:00;;;;;;;2.88;1.77;;;;;;;5.67;100.00;93738.56;5090218;28;20042;-69
2021/12/12 02:44:30;;;;;;;1.95;1.10;;;;;;;5.70;100.00;93745.84;5090545;28;20420;-68
2021/12/12 02:47:05;;;;;;;3.67;1.63;;;;;;;5.72;100.00;93739.44;5090424;28;20055;-69
2021/12/12 02:52:31;;;;;;;2.38;1.20;;;;;;;5.60;100.00;93741.28;5064331;28;20063;-69
2021/12/12 02:55:00;;;;;;;5.30;3.25;;;;;;;5.57;100.00;93746.09;5075830;28;20425;-69
2021/12/12 02:57:28;;;;;;;4.88;2.15;;;;;;;5.63;100.00;93745.19;5093381;28;20039;-68
2021/12/12 02:59:55;;;;;;;3.55;1.80;;;;;;;5.60;100.00;93753.38;5095749;28;20078;-69
2021/12/12 03:02:28;;;;;;;11.13;2.17;;;;;;;5.54;100.00;93758.44;5093608;28;20040;-69
2021/12/12 03:04:59;;;;;;;2.03;1.30;;;;;;;5.54;100.00;93766.19;5091605;28;20074;-69
2021/12/12 03:07:27;;;;;;;6.68;4.15;;;;;;;5.53;100.00;93764.63;5099450;28;20459;-68
2021/12/12 03:09:56;;;;;;;3.42;2.67;;;;;;;5.43;100.00;93756.66;5088604;28;20750;-68
2021/12/12 03:12:31;;;;;;;4.22;1.80;;;;;;;5.31;100.00;93750.69;5093867;28;20046;-69
2021/12/12 03:15:19;;;;;;;2.38;1.20;;;;;;;5.15;100.00;93745.19;5092772;28;20440;-68
2021/12/12 03:17:49;;;;;;;2.33;1.48;;;;;;;5.20;100.00;93761.81;5095672;28;20059;-68
2021/12/12 03:20:24;;;;;;;1.45;0.80;;;;;;;5.14;100.00;93759.09;5075880;28;20408;-69
2021/12/12 03:22:56;;;;;;;8.80;1.10;;;;;;;5.04;100.00;93764.06;5094110;28;20501;-68
2021/12/12 03:25:24;;;;;;;1.63;0.57;;;;;;;5.00;100.00;93770.66;5097977;28;20156;-69
2021/12/12 03:27:51;;;;;;;1.67;0.70;;;;;;;5.00;100.00;93778.38;5094791;28;20066;-69
2021/12/12 03:30:18;;;;;;;3.67;1.17;;;;;;;4.95;100.00;93791.97;5089107;28;20477;-69
2021/12/12 03:32:46;;;;;;;1.25;0.80;;;;;;;4.83;100.00;93782.63;5094983;28;20048;-69
2021/12/12 03:35:13;;;;;;;3.30;2.50;;;;;;;4.72;100.00;93782.38;5088416;28;20469;-69
2021/12/12 03:37:41;;;;;;;3.45;3.15;;;;;;;4.90;100.00;93802.16;5091603;28;20050;-69
2021/12/12 03:40:31;;;;;;;2.38;1.58;;;;;;;4.70;100.00;93820.50;5086905;28;20055;-69
2021/12/12 03:43:00;;;;;;;1.83;1.02;;;;;;;4.71;100.00;93832.38;5088581;28;20497;-69
2021/12/12 03:45:28;;;;;;;6.68;1.88;;;;;;;4.64;100.00;93829.09;5095710;28;20051;-68
2021/12/12 03:48:01;;;;;;;1.35;0.98;;;;;;;4.51;100.00;93831.84;5091836;28;20048;-68
2021/12/12 03:50:32;;;;;;;2.95;2.35;;;;;;;4.53;100.00;93837.56;5092813;28;20050;-68
2021/12/12 03:53:00;;;;;;;3.95;2.22;;;;;;;4.35;100.00;93844.31;5089660;28;20496;-68
2021/12/12 03:55:28;;;;;;;2.55;1.67;;;;;;;4.16;100.00;93840.97;5070947;28;20039;-68
2021/12/12 03:57:58;;;;;;;2.50;1.73;;;;;;;4.03;100.00;93848.81;5094588;28;20047;-69
2021/12/12 04:00:44;;;;;;;2.38;1.67;;;;;;;3.94;100.00;93850.91;5090515;28;20044;-69
2021/12/12 04:03:13;;;;;;;2.38;1.75;;;;;;;3.86;100.00;93856.34;5091966;28;20048;-69
2021/12/12 04:05:46;;;;;;;2.20;1.70;;;;;;;3.83;100.00;93846.44;5090086;28;20094;-69
2021/12/12 04:08:13;;;;;;;3.88;2.22;;;;;;;3.89;100.00;93855.91;5095526;28;20031;-69
2021/12/12 04:10:41;;;;;;;3.08;2.30;;;;;;;3.77;100.00;93860.97;5094030;28;20043;-69
2021/12/12 04:13:08;;;;;;;2.42;1.83;;;;;;;3.69;100.00;93865.59;5092451;28;20032;-69
2021/12/12 04:15:36;;;;;;;3.20;2.05;;;;;;;3.56;100.00;93859.56;5092146;28;20043;-68
2021/12/12 04:18:04;;;;;;;2.58;1.60;;;;;;;3.59;100.00;93876.38;5093883;28;20096;-68
2021/12/12 04:20:35;;;;;;;2.33;1.58;;;;;;;3.47;100.00;93872.91;5095935;28;20520;-69
2021/12/12 04:23:13;;;;;;;2.75;1.30;;;;;;;3.35;100.00;93849.63;5091877;28;20039;-69
2021/12/12 04:25:40;;;;;;;3.95;1.65;;;;;;;3.16;100.00;93877.88;5091672;28;20063;-69
2021/12/12 04:28:07;;;;;;;2.25;1.65;;;;;;;3.17;100.00;93858.88;5096902;28;20048;-69
2021/12/12 04:30:33;;;;;;;3.05;1.60;;;;;;;3.11;100.00;93882.06;5100705;28;20044;-69
2021/12/12 04:33:00;;;;;;;2.70;1.45;;;;;;;3.11;100.00;93888.00;5093257;28;20101;-69
2021/12/12 04:35:28;;;;;;;4.40;2.13;;;;;;;3.08;100.00;93885.03;5095509;28;20040;-69
2021/12/12 04:37:57;;;;;;;2.53;1.40;;;;;;;2.90;100.00;93888.31;5098584;28;20139;-69
2021/12/12 04:40:28;;;;;;;5.40;2.80;;;;;;;2.92;100.00;93891.47;5094731;28;20045;-68
2021/12/12 04:42:57;;;;;;;9.07;5.13;;;;;;;2.90;100.00;93903.75;5095386;28;20040;-69
2021/12/12 04:45:49;;;;;;;5.93;3.75;;;;;;;3.06;100.00;93913.53;5102688;28;20043;-69
2021/12/12 04:51:48;;;;;;;4.70;4.07;;;;;;;2.91;100.00;93915.63;5102381;28;20048;-69
2021/12/12 04:54:41;;;;;;;4.07;2.53;;;;;;;3.04;100.00;93944.66;5096192;28;20098;-69
2021/12/12 04:57:35;;;;;;;6.32;3.47;;;;;;;3.05;100.00;93953.16;5066927;28;20051;-68
2021/12/12 05:00:19;;;;;;;4.78;3.33;;;;;;;2.97;100.00;93961.91;5094025;28;20056;-69
2021/12/12 05:03:00;;;;;;;3.20;2.40;;;;;;;2.93;100.00;93965.06;5095448;28;20050;-69
2021/12/12 05:05:36;;;;;;;10.20;5.03;;;;;;;2.86;100.00;93971.03;5092391;28;20039;-69
2021/12/12 05:08:12;;;;;;;10.38;4.72;;;;;;;2.98;100.00;93973.75;5095678;28;20044;-69
2021/12/12 05:10:50;;;;;;;6.03;3.75;;;;;;;2.87;100.00;93988.03;5087008;28;20418;-69
2021/12/12 05:13:32;;;;;;;7.18;4.50;;;;;;;2.78;100.00;93993.63;5092830;28;20040;-69
2021/12/12 05:16:09;;;;;;;4.10;2.75;;;;;;;2.72;100.00;94000.38;5096161;28;20043;-69
2021/12/12 05:18:50;;;;;;;18.00;8.00;;;;;;;2.83;100.00;94009.22;5095506;28;20119;-69
2021/12/12 05:21:25;;;;;;;7.32;4.07;;;;;;;2.80;100.00;94007.84;5095099;28;20043;-68
2021/12/12 05:23:57;;;;;;;6.63;4.07;;;;;;;2.68;100.00;93999.97;5092669;28;20036;-69
2021/12/12 05:26:29;;;;;;;11.10;5.75;;;;;;;2.74;100.00;94007.84;5092420;28;20047;-69
2021/12/12 05:29:08;;;;;;;9.82;5.45;;;;;;;2.92;100.00;94014.91;5097837;28;20408;-69
2021/12/12 05:31:36;;;;;;;6.32;3.22;;;;;;;2.81;100.00;94009.44;5094803;28;20039;-69
2021/12/12 05:34:04;;;;;;;27.08;11.90;;;;;;;2.97;100.00;94015.09;5081901;28;20441;-69
2021/12/12 05:36:35;;;;;;;51.70;22.95;;;;;;;3.08;100.00;94019.63;5092115;28;20046;-69
2021/12/12 05:39:05;;;;;;;15.20;9.45;;;;;;;3.09;100.00;94026.34;5100964;28;20043;-69
2021/12/12 05:41:33;;;;;;;14.68;8.38;;;;;;;3.07;100.00;94028.34;5097580;28;20416;-69
2021/12/12 05:44:01;;;;;;;7.13;4.47;;;;;;;2.91;100.00;94029.56;5095737;28;20445;-70
2021/12/12 05:46:28;;;;;;;6.28;3.53;;;;;;;2.75;100.00;94020.50;5096811;28;20058;-69
2021/12/12 05:48:55;;;;;;;11.85;7.30;;;;;;;2.78;100.00;94039.91;5096966;28;20500;-68
2021/12/12 05:51:23;;;;;;;3.90;3.15;;;;;;;2.65;100.00;94063.88;5099303;28;20040;-68
2021/12/12 05:53:54;;;;;;;3.95;2.53;;;;;;;2.62;100.00;94046.25;5092382;28;20036;-68
2021/12/12 05:56:24;;;;;;;3.05;1.83;;;;;;;2.58;100.00;94055.38;5077901;28;20061;-68
2021/12/12 05:58:52;;;;;;;2.38;1.98;;;;;;;2.68;100.00;94076.31;5089370;28;20062;-68
2021/12/12 06:01:19;;;;;;;4.97;2.63;;;;;;;2.72;100.00;94092.13;5097183;28;20043;-69
2021/12/12 06:03:47;;;;;;;3.90;3.10;;;;;;;2.69;100.00;94088.19;5095120;28;20155;-69
2021/12/12 06:06:20;;;;;;;5.05;3.10;;;;;;;2.66;100.00;94093.72;5093864;28;20042;-69
2021/12/12 06:08:49;;;;;;;5.00;3.17;;;;;;;2.59;100.00;94092.94;5093156;28;20032;-69
2021/12/12 06:11:21;;;;;;;9.98;4.70;;;;;;;2.44;100.00;94096.50;5090672;28;20523;-69
2021/12/12 06:13:49;;;;;;;4.13;2.88;;;;;;;2.41;100.00;94094.34;5095368;28;20043;-68
2021/12/12 06:16:19;;;;;;;8.60;4.05;;;;;;;2.60;100.00;94102.25;5089630;28;20044;-69
2021/12/12 06:19:14;;;;;;;6.57;3.28;;;;;;;2.66;100.00;94098.84;5095967;28;20043;-69
2021/12/12 06:21:42;;;;;;;5.72;2.85;;;;;;;2.53;100.00;94106.59;5086351;28;20062;-69
2021/12/12 06:24:10;;;;;;;21.90;8.90;;;;;;;2.62;100.00;94123.41;5098625;28;20037;-69
2021/12/12 06:26:37;;;;;;;16.88;9.93;;;;;;;2.68;100.00;94153.44;5073006;28;20050;-69
2021/12/12 06:29:06;;;;;;;9.65;5.22;;;;;;;2.64;100.00;94157.41;5092899;28;20050;-69
2021/12/12 06:31:39;;;;;;;14.32;7.38;;;;;;;2.58;100.00;94142.78;5095512;28;20035;-69
2021/12/12 06:34:06;;;;;;;10.23;4.93;;;;;;;2.58;100.00;94163.34;5089997;28;20061;-69
2021/12/12 06:36:33;;;;;;;10.57;5.93;;;;;;;2.59;100.00;94149.50;5094114;28;20512;-69
2021/12/12 06:39:03;;;;;;;5.07;3.55;;;;;;;2.53;100.00;94150.28;5094173;28;20036;-69
2021/12/12 06:41:30;;;;;;;24.70;9.32;;;;;;;2.46;100.00;94171.63;5099105;28;20047;-68
2021/12/12 06:43:58;;;;;;;9.75;5.47;;;;;;;2.53;100.00;94170.84;5093750;28;20204;-68
2021/12/12 06:46:25;;;;;;;9.23;5.43;;;;;;;2.54;100.00;94182.72;5075353;28;20047;-68
2021/12/12 06:48:53;;;;;;;7.20;4.13;;;;;;;2.60;100.00;94197.38;5089509;28;20521;-68
2021/12/12 06:51:21;;;;;;;6.90;4.03;;;;;;;2.51;100.00;94175.41;5094041;28;20053;-68
2021/12/12 06:53:48;;;;;;;16.10;8.65;;;;;;;2.51;100.00;94167.69;5098491;28;20040;-69
2021/12/12 06:56:20;;;;;;;17.80;6.88;;;;;;;2.66;100.00;94194.00;5096382;28;20044;-69
2021/12/12 06:58:49;;;;;;;5.05;3.08;;;;;;;2.54;100.00;94187.84;5075708;28;20059;-68
2021/12/12 07:01:23;;;;;;;10.82;5.90;;;;;;;2.62;100.00;94185.09;5096316;28;20044;-68
2021/12/12 07:03:50;;;;;;;6.55;3.92;;;;;;;2.70;100.00;94208.03;5092049;28;20042;-68
2021/12/12 07:06:21;;;;;;;10.13;3.78;;;;;;;2.75;100.00;94213.38;5093977;28;20404;-68
2021/12/12 07:08:48;;;;;;;4.47;1.88;;;;;;;2.75;100.00;94210.81;5095688;28;20058;-69
2021/12/12 07:11:21;;;;;;;3.50;2.45;;;;;;;2.69;100.00;94219.31;5092319;28;20529;-68
2021/12/12 07:13:49;;;;;;;6.78;3.70;;;;;;;2.74;100.00;94229.81;5095273;28;20035;-68
2021/12/12 07:16:20;;;;;;;4.43;3.08;;;;;;;2.79;100.00;94224.88;5093331;28;20039;-69
2021/12/12 07:18:47;;;;;;;7.50;3.50;;;;;;;2.79;100.00;94232.59;5093305;28;20421;-68
2021/12/12 07:21:17;;;;;;;9.98;5.25;;;;;;;2.86;100.00;94235.97;5091814;28;20043;-68
2021/12/12 07:23:45;;;;;;;3.83;2.55;;;;;;;2.73;100.00;94228.22;5074416;28;20573;-68
2021/12/12 07:26:14;;;;;;;8.98;3.83;;;;;;;2.78;100.00;94256.72;5091396;28;20045;-68
2021/12/12 07:28:42;;;;;;;5.57;3.47;;;;;;;2.76;100.00;94268.97;5073119;28;20043;-68
2021/12/12 07:31:16;;;;;;;5.43;4.05;;;;;;;2.77;100.00;94275.69;5087528;28;20100;-69
2021/12/12 07:33:45;;;;;;;5.93;3.60;;;;;;;2.72;100.00;94262.66;5093205;28;20055;-68
2021/12/12 07:36:18;;;;;;;10.10;4.55;;;;;;;2.78;100.00;94269.56;5091189;28;20047;-68
2021/12/12 07:38:51;;;;;;;8.82;2.97;;;;;;;2.85;100.00;94278.09;5090805;28;20035;-68
2021/12/12 07:41:20;;;;;;;5.30;3.83;;;;;;;2.81;100.00;94260.66;5090560;28;20051;-69
2021/12/12 07:43:49;;;;;;;4.38;2.85;;;;;;;2.91;100.00;94280.88;5095977;28;20040;-68
2021/12/12 07:46:18;;;;;;;5.47;3.53;;;;;;;2.98;100.00;94292.75;5082220;28;20040;-69
2021/12/12 07:48:47;;;;;;;6.05;3.33;;;;;;;3.02;100.00;94298.28;5094047;28;20051;-68
2021/12/12 07:51:14;;;;;;;5.10;3.58;;;;;;;2.94;100.00;94296.69;5092819;28;20123;-68
2021/12/12 07:53:42;;;;;;;6.38;3.70;;;;;;;2.99;100.00;94316.69;5092331;28;20043;-68
2021/12/12 07:56:10;;;;;;;12.70;5.90;;;;;;;3.07;100.00;94316.50;5082329;28;20153;-69
2021/12/12 07:58:38;;;;;;;14.35;6.38;;;;;;;2.98;100.00;94327.97;5092750;28;20067;-68
2021/12/12 08:01:06;;;;;;;15.50;5.05;;;;;;;3.01;100.00;94343.03;5085198;28;20044;-68
2021/12/12 08:03:35;;;;;;;16.27;6.35;;;;;;;3.00;100.00;94349.16;5085486;28;20529;-68
2021/12/12 08:06:05;;;;;;;12.55;6.10;;;;;;;2.99;100.00;94344.97;5086799;28;20046;-69
2021/12/12 08:08:32;;;;;;;8.75;4.43;;;;;;;3.00;100.00;94354.28;5091270;28;20048;-68
2021/12/12 08:11:02;;;;;;;6.85;4.25;;;;;;;3.05;100.00;94349.34;5083996;28;20044;-69
2021/12/12 08:13:30;;;;;;;4.55;3.05;;;;;;;3.01;100.00;94348.16;5083492;28;20046;-68
2021/12/12 08:16:00;;;;;;;3.70;3.10;;;;;;;3.12;100.00;94347.59;5081910;28;20062;-69
2021/12/12 08:18:28;;;;;;;4.43;2.72;;;;;;;3.00;100.00;94337.06;5069961;28;20852;-69
2021/12/12 08:20:55;;;;;;;9.77;5.40;;;;;;;3.14;100.00;94343.03;5087485;28;20131;-69
2021/12/12 08:23:24;;;;;;;6.43;3.42;;;;;;;3.11;100.00;94364.00;5081603;28;20051;-68
2021/12/12 08:25:54;;;;;;;6.70;2.35;;;;;;;3.11;100.00;94371.72;5089004;28;20045;-68
2021/12/12 08:28:21;;;;;;;2.33;1.58;;;;;;;3.08;100.00;94368.75;5087358;28;20398;-68
2021/12/12 08:30:50;;;;;;;1.73;1.33;;;;;;;3.21;100.00;94391.94;5084749;28;20067;-68
2021/12/12 08:33:17;;;;;;;3.15;1.83;;;;;;;3.20;100.00;94385.97;5085411;28;20038;-69
2021/12/12 08:35:45;;;;;;;5.35;2.40;;;;;;;3.21;100.00;94389.38;5086382;28;20416;-69
2021/12/12 08:38:14;;;;;;;5.55;3.58;;;;;;;3.17;100.00;94383.81;5088970;28;20043;-68
2021/12/12 08:40:49;;;;;;;4.15;2.17;;;;;;;3.23;100.00;94393.31;5085285;28;20044;-69
2021/12/12 08:43:19;;;;;;;2.85;2.00;;;;;;;3.21;100.00;94386.81;5079091;28;21501;-68
2021/12/12 08:45:51;;;;;;;3.40;2.47;;;;;;;3.14;100.00;94373.13;5082178;28;20040;-68
2021/12/12 08:48:21;;;;;;;4.30;2.92;;;;;;;3.32;100.00;94406.03;5082342;28;20044;-68
2021/12/12 08:50:52;;;;;;;4.78;2.40;;;;;;;3.27;100.00;94387.78;5085737;28;20047;-69
2021/12/12 08:53:20;;;;;;;3.10;1.80;;;;;;;3.49;100.00;94403.84;5090497;28;20032;-68
2021/12/12 08:55:50;;;;;;;5.93;3.47;;;;;;;3.50;100.00;94403.66;5095552;28;20047;-69
2021/12/12 08:58:21;;;;;;;5.53;3.00;;;;;;;3.62;100.00;94407.22;5088201;28;20048;-69
2021/12/12 09:00:50;;;;;;;6.15;3.13;;;;;;;3.63;100.00;94416.53;5087973;28;20048;-68
2021/12/12 09:03:36;;;;;;;7.40;3.67;;;;;;;3.59;100.00;94428.22;5085727;28;20492;-69
2021/12/12 09:06:06;;;;;;;4.18;2.03;;;;;;;3.47;100.00;94419.50;5087539;28;20054;-69
2021/12/12 09:08:41;;;;;;;3.85;2.90;;;;;;;3.44;100.00;94425.84;5090924;28;20460;-68
2021/12/12 09:11:27;;;;;;;9.70;4.97;;;;;;;3.39;100.00;94432.56;5092591;28;20505;-68
2021/12/12 09:14:00;;;;;;;30.20;12.20;;;;;;;3.45;100.00;94437.69;5083786;28;20047;-68
2021/12/12 09:16:36;;;;;;;25.08;9.95;;;;;;;3.48;100.00;94428.81;5090471;28;20462;-69
2021/12/12 09:19:09;;;;;;;11.27;5.20;;;;;;;3.53;100.00;94439.31;5094657;28;20044;-68
2021/12/12 09:21:53;;;;;;;4.60;3.28;;;;;;;3.55;100.00;94442.50;5088095;28;20044;-69
2021/12/12 09:24:31;;;;;;;10.20;3.67;;;;;;;3.53;100.00;94444.47;5072357;28;20046;-68
2021/12/12 09:27:05;;;;;;;13.02;4.60;;;;;;;3.52;100.00;94453.16;5086869;28;20142;-68
2021/12/12 09:29:41;;;;;;;5.43;3.05;;;;;;;3.47;100.00;94452.97;5096595;28;20126;-68
2021/12/12 09:32:16;;;;;;;4.95;3.00;;;;;;;3.46;100.00;94448.81;5096880;28;20477;-68
2021/12/12 09:35:08;;;;;;;6.15;3.20;;;;;;;3.54;100.00;94453.75;5093234;28;20039;-68
2021/12/12 09:37:41;;;;;;;7.18;3.53;;;;;;;3.48;100.00;94444.25;5088531;28;20078;-68
2021/12/12 09:40:12;;;;;;;5.95;2.70;;;;;;;3.54;100.00;94447.84;5096043;28;20126;-68
2021/12/12 09:43:29;;;;;;;7.38;4.03;;;;;;;3.59;100.00;94453.19;5092195;28;20048;-68
2021/12/12 09:46:19;;;;;;;7.10;3.10;;;;;;;3.57;100.00;94461.09;5047711;28;20111;-68
2021/12/12 09:51:40;;;;;;;3.33;2.22;;;;;;;3.68;100.00;94456.38;5094658;28;20036;-68
2021/12/12 09:54:20;;;;;;;4.40;2.15;;;;;;;3.61;100.00;94457.13;5093311;28;20036;-68
2021/12/12 09:57:02;;;;;;;5.22;2.33;;;;;;;3.53;100.00;94459.91;5092825;28;20044;-69
2021/12/12 09:59:47;;;;;;;3.28;1.77;;;;;;;3.51;100.00;94461.91;5094391;28;20055;-69
2021/12/12 10:02:25;;;;;;;3.65;2.50;;;;;;;3.38;100.00;94446.41;5097817;28;20044;-68
2021/12/12 10:05:11;;;;;;;4.00;3.03;;;;;;;3.43;100.00;94451.78;5099276;28;20035;-69
2021/12/12 10:07:57;;;;;;;4.20;2.25;;;;;;;3.47;100.00;94455.53;5091506;28;20040;-69
2021/12/12 10:10:37;;;;;;;1.95;1.20;;;;;;;3.37;100.00;94462.88;5096683;28;20044;-68
2021/12/12 10:13:24;;;;;;;3.53;2.70;;;;;;;3.18;100.00;94472.91;5090703;28;20040;-67
2021/12/12 10:15:56;;;;;;;4.57;2.85;;;;;;;2.90;100.00;94469.63;5092789;28;20127;-68
2021/12/12 10:18:50;;;;;;;2.08;1.58;;;;;;;2.81;100.00;94462.09;5086995;28;21376;-67
2021/12/12 10:21:26;;;;;;;4.18;2.60;;;;;;;3.37;100.00;94460.28;5091505;28;20036;-66
2021/12/12 10:24:21;;;;;;;3.72;2.40;;;;;;;3.63;100.00;94468.03;5096605;28;20043;-67
2021/12/12 10:27:13;;;;;;;3.38;2.10;;;;;;;3.58;100.00;94473.00;5090536;28;20501;-67
2021/12/12 10:30:05;;;;;;;3.25;2.45;;;;;;;3.59;100.00;94469.44;5093309;28;20476;-67
2021/12/12 10:32:46;;;;;;;7.10;4.05;;;;;;;3.76;100.00;94469.84;5091237;28;20048;-68
2021/12/12 10:35:22;;;;;;;6.10;3.35;;;;;;;3.71;100.00;94481.72;5080522;28;20032;-68
2021/12/12 10:38:03;;;;;;;5.28;3.83;;;;;;;3.75;100.00;94493.22;5095941;28;20050;-67
2021/12/12 10:40:47;;;;;;;5.88;3.65;;;;;;;3.80;100.00;94490.88;5075164;28;20043;-69
2021/12/12 10:43:22;;;;;;;4.40;3.00;;;;;;;3.68;100.00;94502.72;5088728;28;20042;-69
2021/12/12 10:46:00;;;;;;;5.68;3.30;;;;;;;3.47;100.00;94480.50;5095626;28;20147;-72
2021/12/12 10:48:38;;;;;;;5.70;3.53;;;;;;;3.40;100.00;94493.34;5104669;28;20551;-71
2021/12/12 10:51:16;;;;;;;3.88;2.10;;;;;;;3.43;100.00;94496.31;5096085;28;20067;-69
2021/12/12 10:54:13;;;;;;;5.18;3.58;;;;;;;3.47;100.00;94489.00;5096524;28;20036;-70
2021/12/12 10:56:52;;;;;;;5.00;2.90;;;;;;;3.39;100.00;94486.63;5089085;28;20052;-71
2021/12/12 10:59:22;;;;;;;4.38;2.30;;;;;;;3.54;100.00;94492.38;5092005;28;20071;-70
2021/12/12 11:01:54;;;;;;;3.88;2.78;;;;;;;3.53;100.00;94493.41;5091022;28;20047;-71
2021/12/12 11:04:52;;;;;;;5.05;2.80;;;;;;;3.41;100.00;94497.53;5089318;28;20060;-71
2021/12/12 11:07:48;;;;;;;9.98;5.20;;;;;;;3.19;100.00;94495.06;5079078;28;20051;-70
2021/12/12 11:10:19;;;;;;;4.93;3.45;;;;;;;3.21;100.00;94503.41;5093482;28;20040;-71
2021/12/12 11:12:50;;;;;;;5.78;3.28;;;;;;;3.30;100.00;94505.81;5094561;28;20055;-71
2021/12/12 11:15:39;;;;;;;5.25;3.13;;;;;;;3.16;100.00;94495.47;5094863;28;20044;-70
2021/12/12 11:18:16;;;;;;;15.25;8.48;;;;;;;2.97;100.00;94478.97;5093885;28;20047;-70
2021/12/12 11:20:50;;;;;;;7.57;3.38;;;;;;;3.00;100.00;94485.50;5096863;28;20429;-70
2021/12/12 11:23:32;;;;;;;3.70;2.17;;;;;;;3.15;100.00;94488.75;5090022;28;20043;-70
2021/12/12 11:26:07;;;;;;;3.85;2.10;;;;;;;3.22;100.00;94489.56;5093920;28;20147;-69
2021/12/12 11:28:46;;;;;;;3.42;2.47;;;;;;;3.33;100.00;94495.09;5094388;28;20051;-69
2021/12/12 11:31:21;;;;;;;6.05;3.40;;;;;;;3.31;100.00;94507.38;5078212;28;20113;-70
2021/12/12 11:33:51;;;;;;;8.13;4.60;;;;;;;3.41;100.00;94497.53;5095381;28;20529;-70
2021/12/12 11:36:24;;;;;;;10.02;4.47;;;;;;;3.24;100.00;94505.59;5096180;28;20440;-69
2021/12/12 11:39:05;;;;;;;6.67;3.23;;;;;;;3.10;100.00;94510.88;5095314;28;20043;-70
2021/12/12 11:41:40;;;;;;;8.90;4.30;;;;;;;2.93;100.00;94516.34;5091504;28;20488;-69
2021/12/12 11:44:19;;;;;;;5.35;3.00;;;;;;;2.78;100.00;94519.03;5094200;28;20417;-71
2021/12/12 11:47:00;;;;;;;5.32;3.40;;;;;;;2.61;100.00;94517.75;5091570;28;20067;-70
2021/12/12 11:49:38;;;;;;;3.63;1.85;;;;;;;2.53;100.00;94520.47;5086922;28;20036;-70
2021/12/12 11:52:09;;;;;;;10.27;4.53;;;;;;;2.18;100.00;94507.56;5086850;28;20060;-71
2021/12/12 11:54:42;;;;;;;14.85;7.30;;;;;;;2.15;100.00;94513.09;5089880;28;20450;-71
2021/12/12 11:57:24;;;;;;;29.33;14.45;;;;;;;2.26;100.00;94525.44;5091660;28;20056;-71
2021/12/12 12:00:06;;;;;;;18.30;10.95;;;;;;;2.16;100.00;94530.09;5086463;28;20517;-71
2021/12/12 12:02:37;;;;;;;16.73;8.53;;;;;;;2.16;100.00;94530.09;5088486;28;20429;-71
2021/12/12 12:05:23;;;;;;;10.30;5.40;;;;;;;2.11;100.00;94528.09;5085993;28;20036;-70
2021/12/12 12:08:19;;;;;;;10.35;5.05;;;;;;;2.00;100.00;94534.53;5082259;28;20051;-70
2021/12/12 12:11:16;;;;;;;6.97;4.90;;;;;;;2.02;100.00;94534.34;5061559;28;20127;-70
2021/12/12 12:14:05;;;;;;;10.10;6.53;;;;;;;1.95;100.00;94539.41;5079235;28;20062;-70
2021/12/12 12:16:54;;;;;;;11.82;6.65;;;;;;;1.91;100.00;94538.22;5083147;28;20409;-70
2021/12/12 12:19:41;;;;;;;14.32;6.63;;;;;;;1.78;100.00;94522.66;5081621;28;20120;-70
2021/12/12 12:22:32;;;;;;;8.73;5.38;;;;;;;1.83;100.00;94535.75;5078582;28;20052;-70